sensor_id;sensor_type;location;lat;lon;timestamp;temperature;humidity
9410;DHT22;4744;52.576;13.568;2023-05-23T00:00:47;15.80;1.00
9410;DHT22;4744;52.576;13.568;2023-05-23T00:03:16;15.80;1.00
9410;DHT22;4744;52.576;13.568;2023-05-23T00:05:47;15.70;1.00
9410;DHT22;4744;52.576;13.568;2023-05-23T00:08:15;15.70;1.00
9410;DHT22;4744;52.576;13.568;2023-05-23T00:10:43;15.70;1.00
9410;DHT22;4744;52.576;13.568;2023-05-23T00:13:11;15.70;1.00
9410;DHT22;4744;52.576;13.568;2023-05-23T00:15:39;15.60;1.00
9410;DHT22;4744;52.576;13.568;2023-05-23T00:18:06;15.60;1.00
9410;DHT22;4744;52.576;13.568;2023-05-23T00:20:35;15.50;1.00
9410;DHT22;4744;52.576;13.568;2023-05-23T00:23:05;15.50;1.00
9410;DHT22;4744;52.576;13.568;2023-05-23T00:25:33;15.50;1.00
9410;DHT22;4744;52.576;13.568;2023-05-23T00:28:00;15.50;1.00
9410;DHT22;4744;52.576;13.568;2023-05-23T00:30:29;15.40;1.00
9410;DHT22;4744;52.576;13.568;2023-05-23T00:32:56;15.40;1.00
9410;DHT22;4744;52.576;13.568;2023-05-23T00:35:25;15.40;1.00
9410;DHT22;4744;52.576;13.568;2023-05-23T00:37:52;15.30;1.00
9410;DHT22;4744;52.576;13.568;2023-05-23T00:40:20;15.30;1.00
9410;DHT22;4744;52.576;13.568;2023-05-23T00:42:47;15.30;1.00
9410;DHT22;4744;52.576;13.568;2023-05-23T00:45:15;15.20;1.00
9410;DHT22;4744;52.576;13.568;2023-05-23T00:47:44;15.20;1.00
9410;DHT22;4744;52.576;13.568;2023-05-23T00:50:12;15.30;1.00
9410;DHT22;4744;52.576;13.568;2023-05-23T00:52:40;15.30;1.00
9410;DHT22;4744;52.576;13.568;2023-05-23T00:55:08;15.30;1.00
9410;DHT22;4744;52.576;13.568;2023-05-23T00:57:36;15.30;1.00
9410;DHT22;4744;52.576;13.568;2023-05-23T01:00:06;15.30;1.00
9410;DHT22;4744;52.576;13.568;2023-05-23T01:02:37;15.30;1.00
9410;DHT22;4744;52.576;13.568;2023-05-23T01:05:08;15.30;1.00
9410;DHT22;4744;52.576;13.568;2023-05-23T01:07:35;15.20;1.00
9410;DHT22;4744;52.576;13.568;2023-05-23T01:10:03;15.20;1.00
9410;DHT22;4744;52.576;13.568;2023-05-23T01:12:37;15.20;1.00
9410;DHT22;4744;52.576;13.568;2023-05-23T01:15:09;15.20;1.00
9410;DHT22;4744;52.576;13.568;2023-05-23T01:17:43;15.10;1.00
9410;DHT22;4744;52.576;13.568;2023-05-23T01:20:15;15.20;1.00
9410;DHT22;4744;52.576;13.568;2023-05-23T01:23:04;15.10;1.00
9410;DHT22;4744;52.576;13.568;2023-05-23T01:25:47;15.10;1.00
9410;DHT22;4744;52.576;13.568;2023-05-23T01:28:21;15.20;1.00
9410;DHT22;4744;52.576;13.568;2023-05-23T01:30:51;15.10;1.00
9410;DHT22;4744;52.576;13.568;2023-05-23T01:33:19;15.10;1.00
9410;DHT22;4744;52.576;13.568;2023-05-23T01:35:48;15.10;1.00
9410;DHT22;4744;52.576;13.568;2023-05-23T01:38:16;15.10;1.00
9410;DHT22;4744;52.576;13.568;2023-05-23T01:40:42;15.10;1.00
9410;DHT22;4744;52.576;13.568;2023-05-23T01:43:09;15.00;1.00
9410;DHT22;4744;52.576;13.568;2023-05-23T01:45:38;15.00;1.00
9410;DHT22;4744;52.576;13.568;2023-05-23T01:48:06;15.10;1.00
9410;DHT22;4744;52.576;13.568;2023-05-23T01:50:34;15.10;1.00
9410;DHT22;4744;52.576;13.568;2023-05-23T01:53:01;15.10;1.00
9410;DHT22;4744;52.576;13.568;2023-05-23T01:55:28;15.10;1.00
9410;DHT22;4744;52.576;13.568;2023-05-23T01:57:56;15.00;1.00
9410;DHT22;4744;52.576;13.568;2023-05-23T02:00:24;15.00;1.00
9410;DHT22;4744;52.576;13.568;2023-05-23T02:02:52;15.00;1.00
9410;DHT22;4744;52.576;13.568;2023-05-23T02:05:19;15.00;1.00
9410;DHT22;4744;52.576;13.568;2023-05-23T02:07:46;15.00;1.00
9410;DHT22;4744;52.576;13.568;2023-05-23T02:10:13;15.00;1.00
9410;DHT22;4744;52.576;13.568;2023-05-23T02:12:40;15.00;1.00
9410;DHT22;4744;52.576;13.568;2023-05-23T02:15:07;15.00;1.00
9410;DHT22;4744;52.576;13.568;2023-05-23T02:17:34;15.00;1.00
9410;DHT22;4744;52.576;13.568;2023-05-23T02:20:05;15.00;1.00
9410;DHT22;4744;52.576;13.568;2023-05-23T02:22:33;15.00;1.00
9410;DHT22;4744;52.576;13.568;2023-05-23T02:24:59;15.00;1.00
9410;DHT22;4744;52.576;13.568;2023-05-23T02:27:26;15.00;1.00
9410;DHT22;4744;52.576;13.568;2023-05-23T02:29:53;15.10;1.00
9410;DHT22;4744;52.576;13.568;2023-05-23T02:32:20;15.00;1.00
9410;DHT22;4744;52.576;13.568;2023-05-23T02:34:47;15.10;1.00
9410;DHT22;4744;52.576;13.568;2023-05-23T02:37:16;15.10;1.00
9410;DHT22;4744;52.576;13.568;2023-05-23T02:39:43;15.00;1.00
9410;DHT22;4744;52.576;13.568;2023-05-23T02:42:10;15.00;1.00
9410;DHT22;4744;52.576;13.568;2023-05-23T02:44:37;15.00;1.00
9410;DHT22;4744;52.576;13.568;2023-05-23T02:47:04;15.00;1.00
9410;DHT22;4744;52.576;13.568;2023-05-23T02:49:31;15.00;1.00
9410;DHT22;4744;52.576;13.568;2023-05-23T02:51:58;14.90;1.00
9410;DHT22;4744;52.576;13.568;2023-05-23T02:54:26;15.00;1.00
9410;DHT22;4744;52.576;13.568;2023-05-23T02:56:53;14.90;1.00
9410;DHT22;4744;52.576;13.568;2023-05-23T02:59:20;14.90;1.00
9410;DHT22;4744;52.576;13.568;2023-05-23T03:01:47;14.80;1.00
9410;DHT22;4744;52.576;13.568;2023-05-23T03:04:14;14.80;1.00
9410;DHT22;4744;52.576;13.568;2023-05-23T03:06:41;14.80;1.00
9410;DHT22;4744;52.576;13.568;2023-05-23T03:09:09;14.80;1.00
9410;DHT22;4744;52.576;13.568;2023-05-23T03:11:37;14.80;1.00
9410;DHT22;4744;52.576;13.568;2023-05-23T03:14:04;14.80;1.00
9410;DHT22;4744;52.576;13.568;2023-05-23T03:16:31;14.80;1.00
9410;DHT22;4744;52.576;13.568;2023-05-23T03:18:58;14.80;1.00
9410;DHT22;4744;52.576;13.568;2023-05-23T03:21:25;14.90;1.00
9410;DHT22;4744;52.576;13.568;2023-05-23T03:23:52;14.90;1.00
9410;DHT22;4744;52.576;13.568;2023-05-23T03:26:19;14.90;1.00
9410;DHT22;4744;52.576;13.568;2023-05-23T03:28:47;14.90;1.00
9410;DHT22;4744;52.576;13.568;2023-05-23T03:31:14;15.00;1.00
9410;DHT22;4744;52.576;13.568;2023-05-23T03:33:41;14.90;1.00
9410;DHT22;4744;52.576;13.568;2023-05-23T03:36:08;15.00;1.00
9410;DHT22;4744;52.576;13.568;2023-05-23T03:38:35;15.00;1.00
9410;DHT22;4744;52.576;13.568;2023-05-23T03:41:02;15.00;1.00
9410;DHT22;4744;52.576;13.568;2023-05-23T03:43:29;15.00;1.00
9410;DHT22;4744;52.576;13.568;2023-05-23T03:45:57;15.00;1.00
9410;DHT22;4744;52.576;13.568;2023-05-23T03:48:24;15.00;1.00
9410;DHT22;4744;52.576;13.568;2023-05-23T03:50:51;15.00;1.00
9410;DHT22;4744;52.576;13.568;2023-05-23T03:53:18;15.00;1.00
9410;DHT22;4744;52.576;13.568;2023-05-23T03:55:45;15.00;1.00
9410;DHT22;4744;52.576;13.568;2023-05-23T03:58:12;15.00;1.00
9410;DHT22;4744;52.576;13.568;2023-05-23T04:00:39;15.10;1.00
9410;DHT22;4744;52.576;13.568;2023-05-23T04:03:07;15.10;1.00
9410;DHT22;4744;52.576;13.568;2023-05-23T04:05:35;15.10;1.00
9410;DHT22;4744;52.576;13.568;2023-05-23T04:08:01;15.10;1.00
9410;DHT22;4744;52.576;13.568;2023-05-23T04:10:28;15.10;1.00
9410;DHT22;4744;52.576;13.568;2023-05-23T04:12:55;15.20;1.00
9410;DHT22;4744;52.576;13.568;2023-05-23T04:15:23;15.20;1.00
9410;DHT22;4744;52.576;13.568;2023-05-23T04:17:50;15.20;1.00
9410;DHT22;4744;52.576;13.568;2023-05-23T04:20:18;15.20;1.00
9410;DHT22;4744;52.576;13.568;2023-05-23T04:22:45;15.10;1.00
9410;DHT22;4744;52.576;13.568;2023-05-23T04:25:12;15.10;1.00
9410;DHT22;4744;52.576;13.568;2023-05-23T04:27:39;15.10;1.00
9410;DHT22;4744;52.576;13.568;2023-05-23T04:30:07;15.10;1.00
9410;DHT22;4744;52.576;13.568;2023-05-23T04:32:34;15.10;1.00
9410;DHT22;4744;52.576;13.568;2023-05-23T04:35:02;15.10;1.00
9410;DHT22;4744;52.576;13.568;2023-05-23T04:37:31;15.10;1.00
9410;DHT22;4744;52.576;13.568;2023-05-23T04:39:58;15.10;1.00
9410;DHT22;4744;52.576;13.568;2023-05-23T04:42:25;15.10;1.00
9410;DHT22;4744;52.576;13.568;2023-05-23T04:44:53;15.10;1.00
9410;DHT22;4744;52.576;13.568;2023-05-23T04:47:22;15.10;1.00
9410;DHT22;4744;52.576;13.568;2023-05-23T04:49:53;15.10;1.00
9410;DHT22;4744;52.576;13.568;2023-05-23T04:52:21;15.10;1.00
9410;DHT22;4744;52.576;13.568;2023-05-23T04:54:50;15.20;1.00
9410;DHT22;4744;52.576;13.568;2023-05-23T04:57:18;15.20;1.00
9410;DHT22;4744;52.576;13.568;2023-05-23T04:59:45;15.30;1.00
9410;DHT22;4744;52.576;13.568;2023-05-23T05:02:13;15.40;1.00
9410;DHT22;4744;52.576;13.568;2023-05-23T05:04:41;15.40;1.00
9410;DHT22;4744;52.576;13.568;2023-05-23T05:07:08;15.40;1.00
9410;DHT22;4744;52.576;13.568;2023-05-23T05:09:35;15.40;1.00
9410;DHT22;4744;52.576;13.568;2023-05-23T05:12:03;15.40;1.00
9410;DHT22;4744;52.576;13.568;2023-05-23T05:14:30;15.40;1.00
9410;DHT22;4744;52.576;13.568;2023-05-23T05:16:57;15.50;1.00
9410;DHT22;4744;52.576;13.568;2023-05-23T05:19:24;15.40;1.00
9410;DHT22;4744;52.576;13.568;2023-05-23T05:21:51;15.50;1.00
9410;DHT22;4744;52.576;13.568;2023-05-23T05:24:18;15.40;1.00
9410;DHT22;4744;52.576;13.568;2023-05-23T05:26:47;15.50;1.00
9410;DHT22;4744;52.576;13.568;2023-05-23T05:29:15;15.50;1.00
9410;DHT22;4744;52.576;13.568;2023-05-23T05:31:42;15.50;1.00
9410;DHT22;4744;52.576;13.568;2023-05-23T05:34:10;15.50;1.00
9410;DHT22;4744;52.576;13.568;2023-05-23T05:36:37;15.50;1.00
9410;DHT22;4744;52.576;13.568;2023-05-23T05:39:10;15.50;1.00
9410;DHT22;4744;52.576;13.568;2023-05-23T05:41:37;15.50;1.00
9410;DHT22;4744;52.576;13.568;2023-05-23T05:44:04;15.50;1.00
9410;DHT22;4744;52.576;13.568;2023-05-23T05:46:33;15.50;1.00
9410;DHT22;4744;52.576;13.568;2023-05-23T05:48:59;15.50;1.00
9410;DHT22;4744;52.576;13.568;2023-05-23T05:51:26;15.50;1.00
9410;DHT22;4744;52.576;13.568;2023-05-23T05:53:54;15.50;1.00
9410;DHT22;4744;52.576;13.568;2023-05-23T05:56:20;15.50;1.00
9410;DHT22;4744;52.576;13.568;2023-05-23T05:58:48;15.50;1.00
9410;DHT22;4744;52.576;13.568;2023-05-23T06:01:15;15.60;1.00
9410;DHT22;4744;52.576;13.568;2023-05-23T06:03:43;15.60;1.00
9410;DHT22;4744;52.576;13.568;2023-05-23T06:06:10;15.60;1.00
9410;DHT22;4744;52.576;13.568;2023-05-23T06:08:37;15.60;1.00
9410;DHT22;4744;52.576;13.568;2023-05-23T06:11:04;15.60;1.00
9410;DHT22;4744;52.576;13.568;2023-05-23T06:13:31;15.60;1.00
9410;DHT22;4744;52.576;13.568;2023-05-23T06:15:58;15.60;1.00
9410;DHT22;4744;52.576;13.568;2023-05-23T06:18:25;15.70;1.00
9410;DHT22;4744;52.576;13.568;2023-05-23T06:20:53;15.70;1.00
9410;DHT22;4744;52.576;13.568;2023-05-23T06:23:20;15.80;1.00
9410;DHT22;4744;52.576;13.568;2023-05-23T06:25:47;15.80;1.00
9410;DHT22;4744;52.576;13.568;2023-05-23T06:28:14;15.90;1.00
9410;DHT22;4744;52.576;13.568;2023-05-23T06:30:41;16.00;1.00
9410;DHT22;4744;52.576;13.568;2023-05-23T06:33:07;16.10;1.00
9410;DHT22;4744;52.576;13.568;2023-05-23T06:35:34;16.10;1.00
9410;DHT22;4744;52.576;13.568;2023-05-23T06:38:03;16.20;1.00
9410;DHT22;4744;52.576;13.568;2023-05-23T06:40:29;16.20;1.00
9410;DHT22;4744;52.576;13.568;2023-05-23T06:42:56;16.20;1.00
9410;DHT22;4744;52.576;13.568;2023-05-23T06:45:23;16.30;1.00
9410;DHT22;4744;52.576;13.568;2023-05-23T06:47:50;16.30;1.00
9410;DHT22;4744;52.576;13.568;2023-05-23T06:50:17;16.30;1.00
9410;DHT22;4744;52.576;13.568;2023-05-23T06:52:44;16.30;1.00
9410;DHT22;4744;52.576;13.568;2023-05-23T06:55:13;16.20;1.00
9410;DHT22;4744;52.576;13.568;2023-05-23T06:57:43;16.20;1.00
9410;DHT22;4744;52.576;13.568;2023-05-23T07:00:11;16.20;1.00
9410;DHT22;4744;52.576;13.568;2023-05-23T07:02:39;16.20;1.00
9410;DHT22;4744;52.576;13.568;2023-05-23T07:05:06;16.20;1.00
9410;DHT22;4744;52.576;13.568;2023-05-23T07:07:33;16.30;1.00
9410;DHT22;4744;52.576;13.568;2023-05-23T07:10:00;16.30;1.00
9410;DHT22;4744;52.576;13.568;2023-05-23T07:12:28;16.40;1.00
9410;DHT22;4744;52.576;13.568;2023-05-23T07:14:55;16.40;1.00
9410;DHT22;4744;52.576;13.568;2023-05-23T07:17:22;16.50;1.00
9410;DHT22;4744;52.576;13.568;2023-05-23T07:19:50;16.60;1.00
9410;DHT22;4744;52.576;13.568;2023-05-23T07:22:16;16.80;1.00
9410;DHT22;4744;52.576;13.568;2023-05-23T07:24:43;16.90;1.00
9410;DHT22;4744;52.576;13.568;2023-05-23T07:27:10;17.00;1.00
9410;DHT22;4744;52.576;13.568;2023-05-23T07:29:39;17.10;1.00
9410;DHT22;4744;52.576;13.568;2023-05-23T07:32:05;17.30;1.00
9410;DHT22;4744;52.576;13.568;2023-05-23T07:34:32;17.40;1.00
9410;DHT22;4744;52.576;13.568;2023-05-23T07:36:59;17.40;1.00
9410;DHT22;4744;52.576;13.568;2023-05-23T07:39:26;17.50;1.00
9410;DHT22;4744;52.576;13.568;2023-05-23T07:41:53;17.60;1.00
9410;DHT22;4744;52.576;13.568;2023-05-23T07:44:20;17.70;1.00
9410;DHT22;4744;52.576;13.568;2023-05-23T07:46:48;17.70;1.00
9410;DHT22;4744;52.576;13.568;2023-05-23T07:49:15;17.70;1.00
9410;DHT22;4744;52.576;13.568;2023-05-23T07:51:42;17.70;1.00
9410;DHT22;4744;52.576;13.568;2023-05-23T07:54:09;17.80;1.00
9410;DHT22;4744;52.576;13.568;2023-05-23T07:56:36;17.90;1.00
9410;DHT22;4744;52.576;13.568;2023-05-23T07:59:04;18.00;1.00
9410;DHT22;4744;52.576;13.568;2023-05-23T08:01:30;18.10;1.00
9410;DHT22;4744;52.576;13.568;2023-05-23T08:03:59;18.30;1.00
9410;DHT22;4744;52.576;13.568;2023-05-23T08:06:26;18.40;1.00
9410;DHT22;4744;52.576;13.568;2023-05-23T08:08:52;18.50;1.00
9410;DHT22;4744;52.576;13.568;2023-05-23T08:11:19;18.70;1.00
9410;DHT22;4744;52.576;13.568;2023-05-23T08:13:46;18.90;1.00
9410;DHT22;4744;52.576;13.568;2023-05-23T08:16:13;19.20;1.00
9410;DHT22;4744;52.576;13.568;2023-05-23T08:18:40;19.40;1.00
9410;DHT22;4744;52.576;13.568;2023-05-23T08:21:08;19.60;1.00
9410;DHT22;4744;52.576;13.568;2023-05-23T08:23:35;19.70;1.00
9410;DHT22;4744;52.576;13.568;2023-05-23T08:26:02;19.90;1.00
9410;DHT22;4744;52.576;13.568;2023-05-23T08:28:29;20.00;1.00
9410;DHT22;4744;52.576;13.568;2023-05-23T08:30:59;20.00;1.00
9410;DHT22;4744;52.576;13.568;2023-05-23T08:33:25;20.00;1.00
9410;DHT22;4744;52.576;13.568;2023-05-23T08:35:52;19.90;1.00
9410;DHT22;4744;52.576;13.568;2023-05-23T08:38:21;19.90;1.00
9410;DHT22;4744;52.576;13.568;2023-05-23T08:40:50;20.00;1.00
9410;DHT22;4744;52.576;13.568;2023-05-23T08:43:17;20.10;1.00
9410;DHT22;4744;52.576;13.568;2023-05-23T08:45:45;20.10;1.00
9410;DHT22;4744;52.576;13.568;2023-05-23T08:48:12;20.20;1.00
9410;DHT22;4744;52.576;13.568;2023-05-23T08:50:43;20.30;1.00
9410;DHT22;4744;52.576;13.568;2023-05-23T08:53:14;20.40;1.00
9410;DHT22;4744;52.576;13.568;2023-05-23T08:55:46;20.40;1.00
9410;DHT22;4744;52.576;13.568;2023-05-23T08:58:13;20.40;1.00
9410;DHT22;4744;52.576;13.568;2023-05-23T09:00:41;20.40;1.00
9410;DHT22;4744;52.576;13.568;2023-05-23T09:03:09;20.50;1.00
9410;DHT22;4744;52.576;13.568;2023-05-23T09:05:37;20.60;1.00
9410;DHT22;4744;52.576;13.568;2023-05-23T09:08:04;20.70;1.00
9410;DHT22;4744;52.576;13.568;2023-05-23T09:10:31;20.70;1.00
9410;DHT22;4744;52.576;13.568;2023-05-23T09:12:59;20.70;1.00
9410;DHT22;4744;52.576;13.568;2023-05-23T09:15:26;20.80;1.00
9410;DHT22;4744;52.576;13.568;2023-05-23T09:17:58;20.80;1.00
9410;DHT22;4744;52.576;13.568;2023-05-23T09:20:27;20.90;1.00
9410;DHT22;4744;52.576;13.568;2023-05-23T09:22:54;21.00;1.00
9410;DHT22;4744;52.576;13.568;2023-05-23T09:25:21;21.10;1.00
9410;DHT22;4744;52.576;13.568;2023-05-23T09:27:48;21.30;1.00
9410;DHT22;4744;52.576;13.568;2023-05-23T09:30:16;21.40;1.00
9410;DHT22;4744;52.576;13.568;2023-05-23T09:32:58;21.50;1.00
9410;DHT22;4744;52.576;13.568;2023-05-23T09:35:27;21.50;1.00
9410;DHT22;4744;52.576;13.568;2023-05-23T09:37:56;21.40;1.00
9410;DHT22;4744;52.576;13.568;2023-05-23T09:40:29;21.40;1.00
9410;DHT22;4744;52.576;13.568;2023-05-23T09:43:01;21.40;1.00
9410;DHT22;4744;52.576;13.568;2023-05-23T09:45:30;21.50;1.00
9410;DHT22;4744;52.576;13.568;2023-05-23T09:47:57;21.60;1.00
9410;DHT22;4744;52.576;13.568;2023-05-23T09:50:29;21.60;1.00
9410;DHT22;4744;52.576;13.568;2023-05-23T09:52:57;21.70;1.00
9410;DHT22;4744;52.576;13.568;2023-05-23T09:55:25;21.80;1.00
9410;DHT22;4744;52.576;13.568;2023-05-23T09:57:53;22.00;1.00
9410;DHT22;4744;52.576;13.568;2023-05-23T10:00:22;22.10;1.00
9410;DHT22;4744;52.576;13.568;2023-05-23T10:02:59;22.20;1.00
9410;DHT22;4744;52.576;13.568;2023-05-23T10:05:32;22.20;1.00
9410;DHT22;4744;52.576;13.568;2023-05-23T10:08:01;22.30;1.00
9410;DHT22;4744;52.576;13.568;2023-05-23T10:10:30;22.40;1.00
9410;DHT22;4744;52.576;13.568;2023-05-23T10:12:59;22.60;1.00
9410;DHT22;4744;52.576;13.568;2023-05-23T10:15:33;22.70;1.00
9410;DHT22;4744;52.576;13.568;2023-05-23T10:18:09;22.80;1.00
9410;DHT22;4744;52.576;13.568;2023-05-23T10:20:39;22.80;1.00
9410;DHT22;4744;52.576;13.568;2023-05-23T10:23:09;22.90;1.00
9410;DHT22;4744;52.576;13.568;2023-05-23T10:25:36;23.00;1.00
9410;DHT22;4744;52.576;13.568;2023-05-23T10:28:04;23.00;1.00
9410;DHT22;4744;52.576;13.568;2023-05-23T10:30:31;23.20;1.00
9410;DHT22;4744;52.576;13.568;2023-05-23T10:32:58;23.20;1.00
9410;DHT22;4744;52.576;13.568;2023-05-23T10:35:46;23.30;1.00
9410;DHT22;4744;52.576;13.568;2023-05-23T10:38:25;23.40;1.00
9410;DHT22;4744;52.576;13.568;2023-05-23T10:41:00;23.50;1.00
9410;DHT22;4744;52.576;13.568;2023-05-23T10:43:33;23.60;1.00
9410;DHT22;4744;52.576;13.568;2023-05-23T10:46:02;23.60;1.00
9410;DHT22;4744;52.576;13.568;2023-05-23T10:48:32;23.70;1.00
9410;DHT22;4744;52.576;13.568;2023-05-23T10:51:06;23.80;1.00
9410;DHT22;4744;52.576;13.568;2023-05-23T10:53:35;23.90;1.00
9410;DHT22;4744;52.576;13.568;2023-05-23T10:56:04;24.10;1.00
9410;DHT22;4744;52.576;13.568;2023-05-23T10:58:32;24.00;1.00
9410;DHT22;4744;52.576;13.568;2023-05-23T11:01:01;23.90;1.00
9410;DHT22;4744;52.576;13.568;2023-05-23T11:03:36;23.70;1.00
9410;DHT22;4744;52.576;13.568;2023-05-23T11:06:04;23.40;1.00
9410;DHT22;4744;52.576;13.568;2023-05-23T11:08:39;23.40;1.00
9410;DHT22;4744;52.576;13.568;2023-05-23T11:11:07;23.40;1.00
9410;DHT22;4744;52.576;13.568;2023-05-23T11:13:53;23.20;1.00
9410;DHT22;4744;52.576;13.568;2023-05-23T11:16:24;22.90;1.00
9410;DHT22;4744;52.576;13.568;2023-05-23T11:18:51;22.70;1.00
9410;DHT22;4744;52.576;13.568;2023-05-23T11:21:20;22.60;1.00
9410;DHT22;4744;52.576;13.568;2023-05-23T11:23:53;22.40;1.00
9410;DHT22;4744;52.576;13.568;2023-05-23T11:26:30;22.50;1.00
9410;DHT22;4744;52.576;13.568;2023-05-23T11:28:58;22.80;1.00
9410;DHT22;4744;52.576;13.568;2023-05-23T11:31:25;23.00;1.00
9410;DHT22;4744;52.576;13.568;2023-05-23T11:33:52;23.30;1.00
9410;DHT22;4744;52.576;13.568;2023-05-23T11:36:21;23.50;1.00
9410;DHT22;4744;52.576;13.568;2023-05-23T11:38:49;23.40;1.00
9410;DHT22;4744;52.576;13.568;2023-05-23T11:41:17;23.30;1.00
9410;DHT22;4744;52.576;13.568;2023-05-23T11:43:49;23.20;1.00
9410;DHT22;4744;52.576;13.568;2023-05-23T11:46:16;23.20;1.00
9410;DHT22;4744;52.576;13.568;2023-05-23T11:48:44;23.10;1.00
9410;DHT22;4744;52.576;13.568;2023-05-23T11:51:11;22.90;1.00
9410;DHT22;4744;52.576;13.568;2023-05-23T11:53:40;22.70;1.00
9410;DHT22;4744;52.576;13.568;2023-05-23T11:56:07;22.30;1.00
9410;DHT22;4744;52.576;13.568;2023-05-23T11:58:35;22.00;1.00
9410;DHT22;4744;52.576;13.568;2023-05-23T12:01:03;21.80;1.00
9410;DHT22;4744;52.576;13.568;2023-05-23T12:03:31;21.70;1.00
9410;DHT22;4744;52.576;13.568;2023-05-23T12:05:58;21.60;1.00
9410;DHT22;4744;52.576;13.568;2023-05-23T12:08:25;21.60;1.00
9410;DHT22;4744;52.576;13.568;2023-05-23T12:10:56;21.60;1.00
9410;DHT22;4744;52.576;13.568;2023-05-23T12:13:24;21.50;1.00
9410;DHT22;4744;52.576;13.568;2023-05-23T12:15:53;21.50;1.00
9410;DHT22;4744;52.576;13.568;2023-05-23T12:18:20;21.50;1.00
9410;DHT22;4744;52.576;13.568;2023-05-23T12:20:48;21.40;1.00
9410;DHT22;4744;52.576;13.568;2023-05-23T12:23:19;21.20;1.00
9410;DHT22;4744;52.576;13.568;2023-05-23T12:25:49;21.10;1.00
9410;DHT22;4744;52.576;13.568;2023-05-23T12:28:19;21.00;1.00
9410;DHT22;4744;52.576;13.568;2023-05-23T12:30:46;21.00;1.00
9410;DHT22;4744;52.576;13.568;2023-05-23T12:33:13;21.00;1.00
9410;DHT22;4744;52.576;13.568;2023-05-23T12:35:42;21.00;1.00
9410;DHT22;4744;52.576;13.568;2023-05-23T12:38:14;21.00;1.00
9410;DHT22;4744;52.576;13.568;2023-05-23T12:40:42;21.00;1.00
9410;DHT22;4744;52.576;13.568;2023-05-23T12:43:09;21.10;1.00
9410;DHT22;4744;52.576;13.568;2023-05-23T12:45:37;21.20;1.00
9410;DHT22;4744;52.576;13.568;2023-05-23T12:48:05;21.30;1.00
9410;DHT22;4744;52.576;13.568;2023-05-23T12:50:33;21.30;1.00
9410;DHT22;4744;52.576;13.568;2023-05-23T12:53:00;21.30;1.00
9410;DHT22;4744;52.576;13.568;2023-05-23T12:55:26;21.30;1.00
9410;DHT22;4744;52.576;13.568;2023-05-23T12:57:53;21.20;1.00
9410;DHT22;4744;52.576;13.568;2023-05-23T13:00:20;21.20;1.00
9410;DHT22;4744;52.576;13.568;2023-05-23T13:02:49;21.10;1.00
9410;DHT22;4744;52.576;13.568;2023-05-23T13:05:16;20.90;1.00
9410;DHT22;4744;52.576;13.568;2023-05-23T13:07:43;20.80;1.00
9410;DHT22;4744;52.576;13.568;2023-05-23T13:10:10;20.60;1.00
9410;DHT22;4744;52.576;13.568;2023-05-23T13:12:37;20.50;1.00
9410;DHT22;4744;52.576;13.568;2023-05-23T13:15:05;20.50;1.00
9410;DHT22;4744;52.576;13.568;2023-05-23T13:17:32;20.50;1.00
9410;DHT22;4744;52.576;13.568;2023-05-23T13:20:00;20.40;1.00
9410;DHT22;4744;52.576;13.568;2023-05-23T13:22:29;20.20;1.00
9410;DHT22;4744;52.576;13.568;2023-05-23T13:24:56;20.20;1.00
9410;DHT22;4744;52.576;13.568;2023-05-23T13:27:23;20.30;1.00
9410;DHT22;4744;52.576;13.568;2023-05-23T13:29:50;20.40;1.00
9410;DHT22;4744;52.576;13.568;2023-05-23T13:32:17;20.40;1.00
9410;DHT22;4744;52.576;13.568;2023-05-23T13:34:43;20.30;1.00
9410;DHT22;4744;52.576;13.568;2023-05-23T13:37:12;20.10;1.00
9410;DHT22;4744;52.576;13.568;2023-05-23T13:39:38;20.00;1.00
9410;DHT22;4744;52.576;13.568;2023-05-23T13:42:06;19.90;1.00
9410;DHT22;4744;52.576;13.568;2023-05-23T13:44:33;19.70;1.00
9410;DHT22;4744;52.576;13.568;2023-05-23T13:47:09;19.40;1.00
9410;DHT22;4744;52.576;13.568;2023-05-23T13:49:36;19.20;1.00
9410;DHT22;4744;52.576;13.568;2023-05-23T13:52:03;19.10;1.00
9410;DHT22;4744;52.576;13.568;2023-05-23T13:54:31;19.00;1.00
9410;DHT22;4744;52.576;13.568;2023-05-23T13:56:59;18.90;1.00
9410;DHT22;4744;52.576;13.568;2023-05-23T13:59:27;18.80;1.00
9410;DHT22;4744;52.576;13.568;2023-05-23T14:01:54;18.80;1.00
9410;DHT22;4744;52.576;13.568;2023-05-23T14:04:21;18.70;1.00
9410;DHT22;4744;52.576;13.568;2023-05-23T14:06:48;18.70;1.00
9410;DHT22;4744;52.576;13.568;2023-05-23T14:09:15;18.70;1.00
9410;DHT22;4744;52.576;13.568;2023-05-23T14:11:43;18.70;1.00
9410;DHT22;4744;52.576;13.568;2023-05-23T14:14:10;18.60;1.00
9410;DHT22;4744;52.576;13.568;2023-05-23T14:16:37;18.60;1.00
9410;DHT22;4744;52.576;13.568;2023-05-23T14:19:04;18.60;1.00
9410;DHT22;4744;52.576;13.568;2023-05-23T14:21:32;18.60;1.00
9410;DHT22;4744;52.576;13.568;2023-05-23T14:23:59;18.60;1.00
9410;DHT22;4744;52.576;13.568;2023-05-23T14:26:26;18.70;1.00
9410;DHT22;4744;52.576;13.568;2023-05-23T14:28:54;18.70;1.00
9410;DHT22;4744;52.576;13.568;2023-05-23T14:31:21;18.80;1.00
9410;DHT22;4744;52.576;13.568;2023-05-23T14:33:48;18.80;1.00
9410;DHT22;4744;52.576;13.568;2023-05-23T14:36:15;18.80;1.00
9410;DHT22;4744;52.576;13.568;2023-05-23T14:38:42;18.70;1.00
9410;DHT22;4744;52.576;13.568;2023-05-23T14:41:10;18.60;1.00
9410;DHT22;4744;52.576;13.568;2023-05-23T14:43:37;18.50;1.00
9410;DHT22;4744;52.576;13.568;2023-05-23T14:46:05;18.50;1.00
9410;DHT22;4744;52.576;13.568;2023-05-23T14:48:32;18.40;1.00
9410;DHT22;4744;52.576;13.568;2023-05-23T14:50:59;18.40;1.00
9410;DHT22;4744;52.576;13.568;2023-05-23T14:53:26;18.40;1.00
9410;DHT22;4744;52.576;13.568;2023-05-23T14:55:53;18.30;1.00
9410;DHT22;4744;52.576;13.568;2023-05-23T14:58:20;18.20;1.00
9410;DHT22;4744;52.576;13.568;2023-05-23T15:00:48;18.20;1.00
9410;DHT22;4744;52.576;13.568;2023-05-23T15:03:16;18.20;1.00
9410;DHT22;4744;52.576;13.568;2023-05-23T15:05:43;18.20;1.00
9410;DHT22;4744;52.576;13.568;2023-05-23T15:08:11;18.20;1.00
9410;DHT22;4744;52.576;13.568;2023-05-23T15:10:38;18.20;1.00
9410;DHT22;4744;52.576;13.568;2023-05-23T15:13:07;18.10;1.00
9410;DHT22;4744;52.576;13.568;2023-05-23T15:15:34;18.00;1.00
9410;DHT22;4744;52.576;13.568;2023-05-23T15:18:03;17.90;1.00
9410;DHT22;4744;52.576;13.568;2023-05-23T15:20:34;17.80;1.00
9410;DHT22;4744;52.576;13.568;2023-05-23T15:23:02;17.60;1.00
9410;DHT22;4744;52.576;13.568;2023-05-23T15:25:29;17.30;1.00
9410;DHT22;4744;52.576;13.568;2023-05-23T15:27:56;17.10;1.00
9410;DHT22;4744;52.576;13.568;2023-05-23T15:30:23;17.00;1.00
9410;DHT22;4744;52.576;13.568;2023-05-23T15:32:50;16.90;1.00
9410;DHT22;4744;52.576;13.568;2023-05-23T15:35:17;16.80;1.00
9410;DHT22;4744;52.576;13.568;2023-05-23T15:37:45;16.60;1.00
9410;DHT22;4744;52.576;13.568;2023-05-23T15:40:12;16.50;1.00
9410;DHT22;4744;52.576;13.568;2023-05-23T15:42:39;16.40;1.00
9410;DHT22;4744;52.576;13.568;2023-05-23T15:45:07;16.30;1.00
9410;DHT22;4744;52.576;13.568;2023-05-23T15:47:34;16.30;1.00
9410;DHT22;4744;52.576;13.568;2023-05-23T15:50:01;16.30;1.00
9410;DHT22;4744;52.576;13.568;2023-05-23T15:52:27;16.20;1.00
9410;DHT22;4744;52.576;13.568;2023-05-23T15:54:56;16.20;1.00
9410;DHT22;4744;52.576;13.568;2023-05-23T15:57:22;16.10;1.00
9410;DHT22;4744;52.576;13.568;2023-05-23T15:59:49;16.00;1.00
9410;DHT22;4744;52.576;13.568;2023-05-23T16:02:17;16.00;1.00
9410;DHT22;4744;52.576;13.568;2023-05-23T16:04:44;15.90;1.00
9410;DHT22;4744;52.576;13.568;2023-05-23T16:07:11;15.80;1.00